createdAt,value
2017-09-26T00:01:19.855Z,98.60
2017-09-26T00:03:49.952Z,99.00
2017-09-26T00:06:20.520Z,99.00
2017-09-26T00:08:50.535Z,99.00
2017-09-26T00:11:32.631Z,98.90
2017-09-26T00:14:07.345Z,98.70
2017-09-26T00:16:43.368Z,98.70
2017-09-26T00:19:13.654Z,98.70
2017-09-26T00:21:43.650Z,98.80
2017-09-26T00:24:14.158Z,99.20
2017-09-26T00:26:44.548Z,99.10
2017-09-26T00:29:15.236Z,99.30
2017-09-26T00:31:45.577Z,99.30
2017-09-26T00:34:15.831Z,99.60
2017-09-26T00:36:48.054Z,99.40
2017-09-26T00:39:18.075Z,99.30
2017-09-26T00:41:58.641Z,99.20
2017-09-26T00:44:31.743Z,99.00
2017-09-26T00:47:01.650Z,98.90
2017-09-26T00:49:31.663Z,99.60
2017-09-26T00:52:03.799Z,99.60
2017-09-26T00:54:35.340Z,99.30
2017-09-26T00:57:05.552Z,99.30
2017-09-26T00:59:35.607Z,99.50
2017-09-26T01:02:05.588Z,99.90
2017-09-26T01:04:35.882Z,99.80
2017-09-26T01:07:05.847Z,99.70
2017-09-26T01:09:36.933Z,99.40
2017-09-26T01:12:08.352Z,99.20
2017-09-26T01:14:38.340Z,99.40
2017-09-26T01:17:08.573Z,99.20
2017-09-26T01:19:39.498Z,99.80
2017-09-26T01:22:11.358Z,99.90
2017-09-26T01:24:41.912Z,99.90
2017-09-26T01:27:12.244Z,99.90
2017-09-26T01:29:42.131Z,99.90
2017-09-26T01:32:11.928Z,99.90
2017-09-26T01:34:42.151Z,99.90
2017-09-26T01:37:12.847Z,99.90
2017-09-26T01:39:42.806Z,99.90
2017-09-26T01:42:13.572Z,99.90
2017-09-26T01:44:43.431Z,99.90
2017-09-26T01:47:13.529Z,99.90
2017-09-26T01:49:43.639Z,99.90
2017-09-26T01:52:20.814Z,99.90
2017-09-26T01:54:57.361Z,99.90
2017-09-26T01:57:27.424Z,99.90
2017-09-26T02:00:01.960Z,99.90
2017-09-26T02:02:35.618Z,99.90
2017-09-26T02:05:07.009Z,99.90
2017-09-26T02:07:37.424Z,99.90
2017-09-26T02:10:07.413Z,99.90
2017-09-26T02:12:38.459Z,99.90
2017-09-26T02:15:08.260Z,99.90
2017-09-26T02:17:38.311Z,99.90
2017-09-26T02:20:08.276Z,99.90
2017-09-26T02:22:39.423Z,99.90
2017-09-26T02:25:09.994Z,99.90
2017-09-26T02:27:39.915Z,99.90
2017-09-26T02:30:09.786Z,99.90
2017-09-26T02:32:39.587Z,99.90
2017-09-26T02:35:11.078Z,99.90
2017-09-26T02:37:42.339Z,99.90
2017-09-26T02:40:12.100Z,99.90
2017-09-26T02:42:53.399Z,99.90
2017-09-26T02:45:25.214Z,99.90
2017-09-26T02:47:55.859Z,99.90
2017-09-26T02:50:25.715Z,99.90
2017-09-26T02:52:55.384Z,99.90
2017-09-26T02:55:25.462Z,99.90
2017-09-26T02:57:56.643Z,99.90
2017-09-26T03:00:28.091Z,99.90
2017-09-26T03:02:58.060Z,99.90
2017-09-26T03:05:28.006Z,99.90
2017-09-26T03:07:58.320Z,99.90
2017-09-26T03:10:27.866Z,99.90
2017-09-26T03:12:57.922Z,99.90
2017-09-26T03:15:27.459Z,99.90
2017-09-26T03:17:57.357Z,99.90
2017-09-26T03:20:27.092Z,99.90
2017-09-26T03:22:57.885Z,99.90
2017-09-26T03:25:27.651Z,99.90
2017-09-26T03:27:57.655Z,99.90
2017-09-26T03:30:27.540Z,99.90
2017-09-26T03:32:58.097Z,99.90
2017-09-26T03:35:28.901Z,99.90
2017-09-26T03:37:59.042Z,99.90
2017-09-26T03:40:29.009Z,99.90
2017-09-26T03:42:58.610Z,99.90
2017-09-26T03:45:28.203Z,99.90
2017-09-26T03:47:58.282Z,99.90
2017-09-26T03:54:01.112Z,99.90
2017-09-26T03:56:31.895Z,99.90
2017-09-26T03:59:01.837Z,99.90
2017-09-26T04:01:32.314Z,99.90
2017-09-26T04:04:04.455Z,99.90
2017-09-26T04:06:34.813Z,99.90
2017-09-26T04:09:04.807Z,99.50
2017-09-26T04:11:34.578Z,99.40
2017-09-26T04:14:05.091Z,99.50
2017-09-26T04:16:35.179Z,99.70
2017-09-26T04:19:04.794Z,99.90
2017-09-26T04:21:34.423Z,99.70
2017-09-26T04:24:04.006Z,99.60
2017-09-26T04:26:34.483Z,99.40
2017-09-26T04:29:04.310Z,99.10
2017-09-26T04:31:33.888Z,99.10
2017-09-26T04:34:04.099Z,99.50
2017-09-26T04:36:33.783Z,99.70
2017-09-26T04:39:04.213Z,99.80
2017-09-26T04:41:34.158Z,99.90
2017-09-26T04:44:04.701Z,99.90
2017-09-26T04:46:34.988Z,99.90
2017-09-26T04:49:07.690Z,99.90
2017-09-26T04:51:40.030Z,99.90
2017-09-26T04:54:10.292Z,99.90
2017-09-26T04:56:39.806Z,99.90
2017-09-26T04:59:09.711Z,99.90
2017-09-26T05:01:40.455Z,99.90
2017-09-26T05:04:10.208Z,99.90
2017-09-26T05:06:46.602Z,99.90
2017-09-26T05:09:16.238Z,99.90
2017-09-26T05:11:45.858Z,99.90
2017-09-26T05:14:17.681Z,99.90
2017-09-26T05:16:48.343Z,99.90
2017-09-26T05:19:17.927Z,99.90
2017-09-26T05:21:47.479Z,99.90
2017-09-26T05:24:35.311Z,99.90
2017-09-26T05:27:05.547Z,99.90
2017-09-26T05:33:04.167Z,99.90
2017-09-26T05:35:36.076Z,99.90
2017-09-26T05:38:15.005Z,99.90
2017-09-26T05:40:48.713Z,99.90
2017-09-26T05:43:29.839Z,99.90
2017-09-26T05:46:04.382Z,99.90
2017-09-26T05:48:37.728Z,99.90
2017-09-26T05:51:08.235Z,99.90
2017-09-26T05:53:37.922Z,99.90
2017-09-26T05:56:07.459Z,99.50
2017-09-26T05:58:37.340Z,99.30
2017-09-26T06:01:06.982Z,99.90
2017-09-26T06:03:37.067Z,99.30
2017-09-26T06:06:06.740Z,99.60
2017-09-26T06:08:36.345Z,99.00
2017-09-26T06:11:06.297Z,99.10
2017-09-26T06:13:35.974Z,99.00
2017-09-26T06:16:06.431Z,97.10
2017-09-26T06:18:36.374Z,97.10
2017-09-26T06:21:05.981Z,96.30
2017-09-26T06:23:36.412Z,95.70
2017-09-26T06:26:07.519Z,94.90
2017-09-26T06:28:37.995Z,88.40
2017-09-26T06:31:07.939Z,88.20
2017-09-26T06:33:40.170Z,80.50
2017-09-26T06:36:16.382Z,76.40
2017-09-26T06:38:47.159Z,68.80
2017-09-26T06:41:40.800Z,68.80
2017-09-26T06:44:31.587Z,65.10
2017-09-26T06:47:20.936Z,63.30
2017-09-26T06:50:13.861Z,62.60
2017-09-26T06:52:44.297Z,59.80
2017-09-26T06:55:15.158Z,59.20
2017-09-26T06:57:48.370Z,59.90
2017-09-26T07:00:18.433Z,59.90
2017-09-26T07:02:51.418Z,60.90
2017-09-26T07:05:21.220Z,60.90
2017-09-26T07:07:51.407Z,59.40
2017-09-26T07:10:41.739Z,57.80
2017-09-26T07:13:16.660Z,56.10
2017-09-26T07:15:46.913Z,55.20
2017-09-26T07:18:26.750Z,54.80
2017-09-26T07:20:57.791Z,57.70
2017-09-26T07:23:29.755Z,57.50
2017-09-26T07:26:00.520Z,57.60
2017-09-26T07:28:42.278Z,56.90
2017-09-26T07:34:17.291Z,54.30
2017-09-26T07:36:50.352Z,53.80
2017-09-26T07:39:22.245Z,53.70
2017-09-26T07:41:52.449Z,53.00
2017-09-26T07:44:24.994Z,53.80
2017-09-26T07:46:55.010Z,53.90
2017-09-26T07:49:24.602Z,54.10
2017-09-26T07:51:55.208Z,55.50
2017-09-26T07:54:32.525Z,55.40
2017-09-26T07:57:10.289Z,55.50
2017-09-26T07:59:40.636Z,55.50
2017-09-26T08:02:11.551Z,55.10
2017-09-26T08:04:42.638Z,57.70
2017-09-26T08:07:17.144Z,53.70
2017-09-26T08:10:04.230Z,53.60
2017-09-26T08:12:35.380Z,51.40
2017-09-26T08:15:23.027Z,50.60
2017-09-26T08:17:53.823Z,51.00
2017-09-26T08:20:24.425Z,49.70
2017-09-26T08:22:55.759Z,49.70
2017-09-26T08:25:30.248Z,47.30
2017-09-26T08:28:01.591Z,46.30
2017-09-26T08:30:31.498Z,45.80
2017-09-26T08:33:02.187Z,44.80
2017-09-26T08:35:33.763Z,46.10
2017-09-26T08:38:14.597Z,46.00
2017-09-26T08:40:47.651Z,46.60
2017-09-26T08:49:31.603Z,49.00
2017-09-26T08:52:03.610Z,48.10
2017-09-26T08:54:33.306Z,48.10
2017-09-26T08:57:02.998Z,49.00
2017-09-26T08:59:35.872Z,48.60
2017-09-26T09:02:06.722Z,52.70
2017-09-26T09:04:54.355Z,52.60
2017-09-26T09:07:25.547Z,46.90
2017-09-26T09:10:07.098Z,46.90
2017-09-26T09:12:40.097Z,52.00
2017-09-26T09:15:20.527Z,50.90
2017-09-26T09:18:12.901Z,50.90
2017-09-26T09:23:40.580Z,54.10
2017-09-26T09:26:11.051Z,54.00
2017-09-26T09:28:42.080Z,58.70
2017-09-26T09:31:12.018Z,58.70
2017-09-26T09:33:42.895Z,58.80
2017-09-26T09:36:14.730Z,63.10
2017-09-26T09:38:44.704Z,63.00
2017-09-26T09:41:14.419Z,63.90
2017-09-26T09:43:44.184Z,68.20
2017-09-26T09:46:23.011Z,69.00
2017-09-26T09:48:53.760Z,63.70
2017-09-26T09:51:29.291Z,58.80
2017-09-26T09:54:02.012Z,61.10
2017-09-26T09:56:36.511Z,62.40
2017-09-26T09:59:09.086Z,62.80
2017-09-26T10:01:41.272Z,61.40
2017-09-26T10:04:13.476Z,54.40
2017-09-26T10:06:43.511Z,60.40
2017-09-26T10:09:15.916Z,58.90
2017-09-26T10:11:49.460Z,61.50
2017-09-26T10:14:22.772Z,61.60
2017-09-26T10:32:14.233Z,63.40
2017-09-26T10:34:48.024Z,64.40
2017-09-26T10:41:58.397Z,64.20
2017-09-26T10:44:28.941Z,63.90
2017-09-26T10:47:03.139Z,62.60
2017-09-26T10:49:33.215Z,62.60
2017-09-26T10:52:22.162Z,61.00
2017-09-26T10:54:54.930Z,59.40
2017-09-26T10:57:25.262Z,59.60
2017-09-26T10:59:55.370Z,59.20
2017-09-26T11:02:27.571Z,59.20
2017-09-26T11:04:59.117Z,58.50
2017-09-26T11:07:34.753Z,57.70
2017-09-26T11:10:34.382Z,61.30
2017-09-26T11:16:07.682Z,58.90
2017-09-26T11:18:38.310Z,58.80
2017-09-26T11:21:08.731Z,59.60
2017-09-26T11:23:38.884Z,60.30
2017-09-26T11:26:09.144Z,59.80
2017-09-26T11:28:40.718Z,56.80
2017-09-26T11:31:12.824Z,58.20
2017-09-26T11:33:47.202Z,61.00
2017-09-26T11:36:19.782Z,61.00
2017-09-26T11:38:49.999Z,59.10
2017-09-26T11:41:21.794Z,58.20
2017-09-26T11:43:53.756Z,59.20
2017-09-26T11:47:01.877Z,59.40
2017-09-26T11:49:32.782Z,58.20
2017-09-26T11:52:04.379Z,57.50
2017-09-26T11:54:34.543Z,57.40
2017-09-26T11:57:07.747Z,56.40
2017-09-26T11:59:41.215Z,55.80
2017-09-26T12:02:14.151Z,59.10
2017-09-26T12:04:45.614Z,59.10
2017-09-26T12:07:17.328Z,60.90
2017-09-26T12:09:52.068Z,59.40
2017-09-26T12:12:24.912Z,60.10
2017-09-26T12:14:57.568Z,60.10
2017-09-26T12:17:31.835Z,62.00
2017-09-26T12:20:03.986Z,63.20
2017-09-26T12:22:36.085Z,58.40
2017-09-26T12:25:13.484Z,58.40
2017-09-26T12:27:53.201Z,57.80
2017-09-26T12:30:23.290Z,57.80
2017-09-26T12:36:22.577Z,58.60
2017-09-26T12:38:55.421Z,58.50
2017-09-26T12:41:29.645Z,59.20
2017-09-26T12:44:01.354Z,58.40
2017-09-26T12:49:35.635Z,61.80
2017-09-26T12:52:08.639Z,63.80
2017-09-26T12:54:46.213Z,63.80
2017-09-26T12:57:17.946Z,64.10
2017-09-26T12:59:48.044Z,63.90
2017-09-26T13:02:49.634Z,63.80
2017-09-26T13:05:19.636Z,65.00
2017-09-26T13:08:05.674Z,63.50
2017-09-26T13:10:36.183Z,65.60
2017-09-26T13:13:08.796Z,65.30
2017-09-26T13:19:23.204Z,66.70
2017-09-26T13:21:56.063Z,66.10
2017-09-26T13:27:31.768Z,64.00
2017-09-26T13:30:04.492Z,63.60
2017-09-26T13:32:41.897Z,65.00
2017-09-26T13:35:12.360Z,66.40
2017-09-26T13:37:42.154Z,68.70
2017-09-26T13:40:13.020Z,67.10
2017-09-26T13:42:51.839Z,67.10
2017-09-26T13:45:41.408Z,67.40
2017-09-26T13:48:35.790Z,69.90
2017-09-26T13:51:06.693Z,69.10
2017-09-26T13:53:37.111Z,69.30
2017-09-26T13:56:09.059Z,68.60
2017-09-26T13:58:40.520Z,66.10
2017-09-26T14:01:13.298Z,65.50
2017-09-26T14:03:43.998Z,66.20
2017-09-26T14:06:15.018Z,66.20
2017-09-26T14:08:45.895Z,67.20
2017-09-26T14:11:15.586Z,69.30
2017-09-26T14:14:00.251Z,68.70
2017-09-26T14:16:30.039Z,68.10
2017-09-26T14:19:06.729Z,67.60
2017-09-26T14:21:38.171Z,70.80
2017-09-26T14:24:08.867Z,70.80
2017-09-26T14:26:39.342Z,70.70
2017-09-26T14:29:13.739Z,71.20
2017-09-26T14:31:48.517Z,71.30
2017-09-26T14:34:19.628Z,71.30
2017-09-26T14:36:49.223Z,73.00
2017-09-26T14:39:20.592Z,73.80
2017-09-26T14:41:51.935Z,75.60
2017-09-26T14:47:22.843Z,77.20
2017-09-26T14:49:53.267Z,77.70
2017-09-26T14:52:24.070Z,76.80
2017-09-26T14:54:53.992Z,77.00
2017-09-26T14:57:23.599Z,77.60
2017-09-26T15:00:14.384Z,78.20
2017-09-26T15:02:45.869Z,77.90
2017-09-26T15:05:16.341Z,79.00
2017-09-26T15:07:50.160Z,78.90
2017-09-26T15:10:26.313Z,79.40
2017-09-26T15:13:00.524Z,80.60
2017-09-26T15:15:33.321Z,79.80
2017-09-26T15:18:05.235Z,81.60
2017-09-26T15:23:35.830Z,81.50
2017-09-26T15:26:07.071Z,82.80
2017-09-26T15:28:38.085Z,83.20
2017-09-26T15:31:08.409Z,83.20
2017-09-26T15:33:43.302Z,81.90
2017-09-26T15:36:14.811Z,81.90
2017-09-26T15:38:45.071Z,81.20
2017-09-26T15:41:19.328Z,83.10
2017-09-26T15:43:49.421Z,83.10
2017-09-26T15:46:25.608Z,83.30
2017-09-26T15:52:06.953Z,82.90
2017-09-26T15:54:37.462Z,84.10
2017-09-26T15:57:08.690Z,84.10
2017-09-26T15:59:38.546Z,84.10
2017-09-26T16:02:08.268Z,84.00
2017-09-26T16:05:07.756Z,83.40
2017-09-26T16:07:46.547Z,85.80
2017-09-26T16:10:16.779Z,85.70
2017-09-26T16:13:09.710Z,84.90
2017-09-26T16:15:55.499Z,84.00
2017-09-26T16:18:31.527Z,84.60
2017-09-26T16:21:07.365Z,85.30
2017-09-26T16:23:55.431Z,85.20
2017-09-26T16:26:38.581Z,85.80
2017-09-26T16:29:13.139Z,87.10
2017-09-26T16:31:48.849Z,89.40
2017-09-26T16:37:19.599Z,89.10
2017-09-26T16:39:49.553Z,90.40
2017-09-26T16:42:19.267Z,90.20
2017-09-26T16:44:50.046Z,90.40
2017-09-26T16:47:20.085Z,90.40
2017-09-26T16:49:51.139Z,91.60
2017-09-26T16:52:22.535Z,91.50
2017-09-26T16:55:08.576Z,91.50
2017-09-26T16:57:43.879Z,92.10
2017-09-26T17:00:14.533Z,92.40
2017-09-26T17:02:44.523Z,92.40
2017-09-26T17:05:15.212Z,92.30
2017-09-26T17:07:44.885Z,92.30
2017-09-26T17:10:14.663Z,92.70
2017-09-26T17:12:45.736Z,93.00
2017-09-26T17:15:17.821Z,93.00
2017-09-26T17:18:07.972Z,93.30
2017-09-26T17:20:41.903Z,93.60
2017-09-26T17:23:16.388Z,94.10
2017-09-26T17:25:47.182Z,94.10
2017-09-26T17:28:21.731Z,94.20
2017-09-26T17:30:52.528Z,94.20
2017-09-26T17:33:22.397Z,94.40
2017-09-26T17:35:53.083Z,94.50
2017-09-26T17:38:30.640Z,94.60
2017-09-26T17:41:00.877Z,95.30
2017-09-26T17:43:36.511Z,95.60
2017-09-26T17:46:10.188Z,95.90
2017-09-26T17:51:41.608Z,96.90
2017-09-26T17:54:13.058Z,96.90
2017-09-26T17:56:43.050Z,96.60
2017-09-26T17:59:17.917Z,96.40
2017-09-26T18:01:47.751Z,96.40
2017-09-26T18:04:18.020Z,96.30
2017-09-26T18:06:48.468Z,96.50
2017-09-26T18:09:20.446Z,96.70
2017-09-26T18:11:54.515Z,96.80
2017-09-26T18:14:33.293Z,97.00
2017-09-26T18:17:03.489Z,97.00
2017-09-26T18:19:33.177Z,97.10
2017-09-26T18:22:10.569Z,97.80
2017-09-26T18:24:41.638Z,97.70
2017-09-26T18:27:11.685Z,97.90
2017-09-26T18:29:41.587Z,98.20
2017-09-26T18:32:12.394Z,98.40
2017-09-26T18:34:42.517Z,98.50
2017-09-26T18:37:13.567Z,98.50
2017-09-26T18:39:50.366Z,97.80
2017-09-26T18:42:20.504Z,97.70
2017-09-26T18:44:53.192Z,97.70
2017-09-26T18:47:24.298Z,98.20
2017-09-26T18:49:54.490Z,98.20
2017-09-26T18:52:24.644Z,98.30
2017-09-26T18:54:54.680Z,98.50
2017-09-26T18:57:24.314Z,98.40
2017-09-26T18:59:54.850Z,98.40
2017-09-26T19:02:25.482Z,98.30
2017-09-26T19:05:15.144Z,98.10
2017-09-26T19:07:47.278Z,98.20
2017-09-26T19:10:17.103Z,98.20
2017-09-26T19:12:47.107Z,98.50
2017-09-26T19:15:18.099Z,99.00
2017-09-26T19:17:47.998Z,99.30
2017-09-26T19:20:17.879Z,98.80
2017-09-26T19:22:47.793Z,98.50
2017-09-26T19:25:17.691Z,98.40
2017-09-26T19:27:47.942Z,98.50
2017-09-26T19:30:18.408Z,98.80
2017-09-26T19:32:48.906Z,99.30
2017-09-26T19:35:22.358Z,99.60
2017-09-26T19:37:54.517Z,99.50
2017-09-26T19:40:24.488Z,99.90
2017-09-26T19:42:54.145Z,99.90
2017-09-26T19:45:23.751Z,99.90
2017-09-26T19:47:54.040Z,99.90
2017-09-26T19:50:24.736Z,99.90
2017-09-26T19:52:55.437Z,99.90
2017-09-26T19:55:25.093Z,99.90
2017-09-26T19:57:54.739Z,99.90
2017-09-26T20:00:25.419Z,99.80
2017-09-26T20:02:55.659Z,99.80
2017-09-26T20:05:25.593Z,99.60
2017-09-26T20:07:55.477Z,99.40
2017-09-26T20:10:25.460Z,99.40
2017-09-26T20:25:31.418Z,99.90
2017-09-26T20:28:01.122Z,99.90
2017-09-26T20:30:30.687Z,99.90
2017-09-26T20:33:06.373Z,99.90
2017-09-26T20:35:36.653Z,99.90
2017-09-26T20:38:07.023Z,99.90
2017-09-26T20:40:38.037Z,99.90
2017-09-26T20:45:44.548Z,99.90
2017-09-26T20:48:14.872Z,99.90
2017-09-26T20:50:45.287Z,99.90
2017-09-26T20:53:16.050Z,99.90
2017-09-26T20:55:45.579Z,99.90
2017-09-26T20:58:15.178Z,99.90
2017-09-26T21:00:45.213Z,99.90
2017-09-26T21:03:15.219Z,99.90
2017-09-26T21:05:45.086Z,99.90
2017-09-26T21:08:16.684Z,99.90
2017-09-26T21:10:46.364Z,99.90
2017-09-26T21:36:05.125Z,99.90
2017-09-26T21:38:39.005Z,99.90
2017-09-26T21:41:08.622Z,99.90
2017-09-26T21:43:38.985Z,99.90
2017-09-26T21:46:08.567Z,99.90
2017-09-26T21:48:39.135Z,99.90
2017-09-26T21:51:09.190Z,99.90
2017-09-26T21:53:39.355Z,99.90
2017-09-26T21:56:09.250Z,99.90
2017-09-26T21:58:38.964Z,99.90
2017-09-26T22:01:09.255Z,99.90
2017-09-26T22:03:39.154Z,99.90
2017-09-26T22:06:08.769Z,99.90
2017-09-26T22:08:38.354Z,99.90
2017-09-26T22:11:08.386Z,99.90
2017-09-26T22:13:38.471Z,99.90
2017-09-26T22:16:08.298Z,99.90
2017-09-26T22:18:38.746Z,99.90
2017-09-26T22:21:08.563Z,99.90
2017-09-26T22:23:38.951Z,99.90
2017-09-26T22:26:08.807Z,99.90
2017-09-26T22:28:38.906Z,99.90
2017-09-26T22:31:09.280Z,99.90
2017-09-26T22:33:40.184Z,99.90
2017-09-26T22:36:10.242Z,99.90
2017-09-26T22:38:40.157Z,99.90
2017-09-26T22:41:10.242Z,99.90
2017-09-26T22:43:41.827Z,99.80
2017-09-26T22:46:12.207Z,99.80
2017-09-26T22:48:42.149Z,99.80
2017-09-26T22:51:11.874Z,99.70
2017-09-26T22:53:41.410Z,99.50
2017-09-26T22:56:11.493Z,99.90
2017-09-26T22:58:41.464Z,99.90
2017-09-26T23:01:11.929Z,99.50
2017-09-26T23:03:42.962Z,99.80
2017-09-26T23:06:13.159Z,99.80
2017-09-26T23:08:43.545Z,99.80
2017-09-26T23:11:13.949Z,99.40
2017-09-26T23:13:43.706Z,98.80
2017-09-26T23:16:13.621Z,98.60
2017-09-26T23:18:44.003Z,98.70
2017-09-26T23:21:13.515Z,99.10
2017-09-26T23:23:43.332Z,99.10
2017-09-26T23:26:15.001Z,98.80
2017-09-26T23:28:45.284Z,98.90
2017-09-26T23:31:15.179Z,98.90
2017-09-26T23:33:45.339Z,99.00
2017-09-26T23:36:16.572Z,99.10
2017-09-26T23:38:46.391Z,99.10
2017-09-26T23:41:16.770Z,99.70
2017-09-26T23:43:46.384Z,99.70
2017-09-26T23:46:15.965Z,99.60
2017-09-26T23:48:46.270Z,99.80
2017-09-26T23:51:16.666Z,99.70
2017-09-26T23:53:48.192Z,99.60
2017-09-26T23:56:18.088Z,99.90
2017-09-26T23:58:47.819Z,99.60
